Time;durP1;ratioP1;P1;durP2;ratioP2;P2;SDS_P1;SDS_P2;PMS_P1;PMS_P2;Temp;Humidity;BMP_temperature;BMP_pressure;BME280_temperature;BME280_humidity;BME280_pressure;Samples;Min_cycle;Max_cycle;Signal;HPM_P1;HPM_P2
2023/04/17 00:02:05;;;;;;;30.00;15.90;;;9.50;91.30;;;;;;5054356;28;20268;-77
2023/04/17 00:04:31;;;;;;;29.20;14.40;;;9.50;91.30;;;;;;5053443;28;20264;-77
2023/04/17 00:06:58;;;;;;;29.93;14.70;;;9.40;91.10;;;;;;5077475;28;20184;-76
2023/04/17 00:09:24;;;;;;;31.17;15.90;;;9.40;91.30;;;;;;5077466;28;20445;-77
2023/04/17 00:11:50;;;;;;;29.63;14.87;;;9.40;91.30;;;;;;5059211;28;20427;-77
2023/04/17 00:14:16;;;;;;;26.50;15.33;;;9.40;91.40;;;;;;5076846;28;20494;-77
2023/04/17 00:16:41;;;;;;;29.67;13.73;;;9.40;91.40;;;;;;5081660;28;20226;-77
2023/04/17 00:19:07;;;;;;;30.30;15.43;;;9.30;91.40;;;;;;5075385;28;20185;-76
2023/04/17 00:21:32;;;;;;;27.17;13.90;;;9.40;91.50;;;;;;5073675;28;20199;-77
2023/04/17 00:23:58;;;;;;;27.77;15.07;;;9.40;91.50;;;;;;5045699;28;20232;-77
2023/04/17 00:26:23;;;;;;;33.33;14.87;;;9.40;91.40;;;;;;5064326;28;20239;-77
2023/04/17 00:28:50;;;;;;;29.13;15.30;;;9.50;91.40;;;;;;5062357;28;20295;-77
2023/04/17 00:31:16;;;;;;;30.63;16.13;;;9.50;91.50;;;;;;5060892;28;20181;-77
2023/04/17 00:33:41;;;;;;;33.10;15.57;;;9.40;91.10;;;;;;5052567;28;20450;-76
2023/04/17 00:36:08;;;;;;;25.13;14.13;;;9.40;91.20;;;;;;5058352;28;20220;-75
2023/04/17 00:38:34;;;;;;;26.10;13.90;;;9.40;91.30;;;;;;5054506;28;20342;-77
2023/04/17 00:41:00;;;;;;;33.57;15.50;;;9.30;91.30;;;;;;5058264;28;20481;-77
2023/04/17 00:43:25;;;;;;;32.10;14.73;;;9.30;91.40;;;;;;5061828;28;20686;-76
2023/04/17 00:45:52;;;;;;;33.73;15.77;;;9.30;91.40;;;;;;5061613;28;20523;-75
2023/04/17 00:48:19;;;;;;;29.93;15.43;;;9.30;91.50;;;;;;5066694;28;20176;-76
2023/04/17 00:50:46;;;;;;;27.47;14.77;;;9.30;91.40;;;;;;5060152;28;20437;-76
2023/04/17 00:53:12;;;;;;;31.37;15.33;;;9.30;91.40;;;;;;5063634;28;20415;-77
2023/04/17 00:55:40;;;;;;;32.90;16.37;;;9.40;91.50;;;;;;5058563;28;20485;-77
2023/04/17 00:58:06;;;;;;;27.00;15.30;;;9.30;91.40;;;;;;5053740;28;20451;-77
2023/04/17 01:00:32;;;;;;;28.13;14.83;;;9.40;91.50;;;;;;5051324;28;20431;-76
2023/04/17 01:02:58;;;;;;;26.83;14.37;;;9.40;91.50;;;;;;5047124;28;20419;-76
2023/04/17 01:05:25;;;;;;;28.80;15.20;;;9.50;91.50;;;;;;5050991;28;20826;-76
2023/04/17 01:07:50;;;;;;;40.00;16.20;;;9.50;91.30;;;;;;5052501;28;20188;-75
2023/04/17 01:10:16;;;;;;;31.10;15.17;;;9.40;91.10;;;;;;5048454;28;20473;-77
2023/04/17 01:12:45;;;;;;;27.60;14.57;;;9.40;91.10;;;;;;5034896;28;20188;-77
2023/04/17 01:15:11;;;;;;;27.07;14.30;;;9.40;91.20;;;;;;5034953;28;20184;-76
2023/04/17 01:17:37;;;;;;;30.33;14.50;;;9.50;91.10;;;;;;5046150;28;20542;-76
2023/04/17 01:20:09;;;;;;;30.70;15.20;;;9.50;90.90;;;;;;5054328;28;20514;-77
2023/04/17 01:22:35;;;;;;;26.87;14.77;;;9.50;90.90;;;;;;5053226;28;20202;-77
2023/04/17 01:25:00;;;;;;;29.80;14.60;;;9.60;90.80;;;;;;5053374;28;20980;-77
2023/04/17 01:27:26;;;;;;;31.00;15.47;;;9.50;90.50;;;;;;5047754;28;20269;-77
2023/04/17 01:29:51;;;;;;;30.43;15.27;;;9.50;90.60;;;;;;5060191;28;20187;-76
2023/04/17 01:32:17;;;;;;;32.17;15.20;;;9.40;90.50;;;;;;5040983;28;20181;-76
2023/04/17 01:34:43;;;;;;;32.37;14.93;;;9.40;90.50;;;;;;5059715;28;20199;-76
2023/04/17 01:37:09;;;;;;;28.20;14.67;;;9.40;90.70;;;;;;5068845;28;20454;-75
2023/04/17 01:39:35;;;;;;;33.93;15.40;;;9.40;90.80;;;;;;5058966;28;20216;-76
2023/04/17 01:42:01;;;;;;;30.17;15.33;;;9.40;90.80;;;;;;5047066;28;20666;-76
2023/04/17 01:44:27;;;;;;;28.37;13.83;;;9.40;90.90;;;;;;5050287;28;20474;-76
2023/04/17 01:46:52;;;;;;;32.27;15.30;;;9.40;90.90;;;;;;5051404;28;20212;-75
2023/04/17 01:49:18;;;;;;;29.50;15.40;;;9.30;91.00;;;;;;5036853;28;20187;-76
2023/04/17 01:51:44;;;;;;;26.70;14.10;;;9.30;91.00;;;;;;5035910;28;20183;-76
2023/04/17 01:54:09;;;;;;;28.47;14.80;;;9.30;91.00;;;;;;5047493;28;20319;-75
2023/04/17 01:56:35;;;;;;;32.63;16.23;;;9.40;91.10;;;;;;5051078;28;20196;-77
2023/04/17 01:59:00;;;;;;;36.60;16.40;;;9.40;91.00;;;;;;5051807;28;20269;-77
2023/04/17 02:01:26;;;;;;;25.37;13.90;;;9.30;90.90;;;;;;5033933;28;20192;-76
2023/04/17 02:03:52;;;;;;;27.93;14.20;;;9.40;91.00;;;;;;5049727;28;20243;-76
2023/04/17 02:06:17;;;;;;;36.37;16.90;;;9.40;90.90;;;;;;5041958;28;20201;-75
2023/04/17 02:08:43;;;;;;;30.23;14.57;;;9.40;90.80;;;;;;5049966;28;20596;-75
2023/04/17 02:11:09;;;;;;;32.70;15.77;;;9.40;90.70;;;;;;5050257;28;20183;-75
2023/04/17 02:13:35;;;;;;;37.03;17.37;;;9.40;90.90;;;;;;5049360;28;20670;-75
2023/04/17 02:16:00;;;;;;;31.23;14.33;;;9.30;90.70;;;;;;5030970;28;20556;-75
2023/04/17 02:18:27;;;;;;;27.37;14.50;;;9.30;90.80;;;;;;5054526;28;20480;-75
2023/04/17 02:20:52;;;;;;;30.47;14.67;;;9.30;90.90;;;;;;5059358;28;20195;-75
2023/04/17 02:23:18;;;;;;;29.10;14.10;;;9.30;91.00;;;;;;5060864;28;20426;-76
2023/04/17 02:25:44;;;;;;;35.40;15.57;;;9.30;90.80;;;;;;5044063;28;20200;-75
2023/04/17 02:28:10;;;;;;;28.40;14.47;;;9.30;90.80;;;;;;5050029;28;20458;-75
2023/04/17 02:30:35;;;;;;;33.57;16.90;;;9.30;90.90;;;;;;5053605;28;20180;-75
2023/04/17 02:33:01;;;;;;;31.13;16.33;;;9.20;90.80;;;;;;5052704;28;20192;-74
2023/04/17 02:35:30;;;;;;;33.30;15.80;;;9.20;91.00;;;;;;5051801;28;20188;-75
2023/04/17 02:37:55;;;;;;;33.10;15.70;;;9.10;91.10;;;;;;5051485;28;20192;-75
2023/04/17 02:40:21;;;;;;;30.83;15.60;;;9.20;91.20;;;;;;5054579;28;20437;-74
2023/04/17 02:42:47;;;;;;;31.10;16.43;;;9.10;91.20;;;;;;5054770;28;20652;-74
2023/04/17 02:45:12;;;;;;;31.50;15.03;;;9.10;91.30;;;;;;5053329;28;20614;-74
2023/04/17 02:47:38;;;;;;;34.60;15.83;;;9.10;91.40;;;;;;5046803;28;20201;-76
2023/04/17 02:50:05;;;;;;;33.13;16.97;;;9.00;91.50;;;;;;5053430;28;20212;-75
2023/04/17 02:52:31;;;;;;;30.93;15.40;;;9.00;91.60;;;;;;5052717;28;20188;-75
2023/04/17 02:54:57;;;;;;;33.43;16.63;;;9.00;91.60;;;;;;5053723;28;20429;-76
2023/04/17 02:57:23;;;;;;;36.60;17.30;;;9.00;91.60;;;;;;5031031;28;20603;-75
2023/04/17 02:59:49;;;;;;;39.23;16.90;;;9.10;91.60;;;;;;5054171;28;20510;-76
2023/04/17 03:02:20;;;;;;;35.53;16.40;;;9.00;91.60;;;;;;5046870;28;20428;-75
2023/04/17 03:04:48;;;;;;;32.77;15.63;;;9.00;91.60;;;;;;5053192;28;20477;-76
2023/04/17 03:07:17;;;;;;;33.60;16.57;;;9.00;91.60;;;;;;5031658;28;20975;-75
2023/04/17 03:09:44;;;;;;;36.10;17.20;;;8.90;91.70;;;;;;5054598;28;20783;-76
2023/04/17 03:12:10;;;;;;;34.33;16.50;;;8.90;91.80;;;;;;5054494;28;20425;-76
2023/04/17 03:14:35;;;;;;;34.07;16.33;;;8.90;91.90;;;;;;5054927;28;20506;-76
2023/04/17 03:17:01;;;;;;;35.90;17.30;;;8.90;92.00;;;;;;5056815;28;20267;-75
2023/04/17 03:19:26;;;;;;;30.97;15.67;;;8.90;92.10;;;;;;5067701;28;20197;-75
2023/04/17 03:21:52;;;;;;;33.20;16.73;;;9.00;92.10;;;;;;5072504;28;20219;-75
2023/04/17 03:24:17;;;;;;;35.20;15.43;;;9.00;92.00;;;;;;5051655;28;20211;-75
2023/04/17 03:26:43;;;;;;;34.13;17.10;;;9.00;92.00;;;;;;5050380;28;20222;-76
2023/04/17 03:29:08;;;;;;;31.90;15.80;;;9.00;92.10;;;;;;5048401;28;20183;-74
2023/04/17 03:31:34;;;;;;;30.67;15.70;;;9.10;92.00;;;;;;5064644;28;20181;-75
2023/04/17 03:34:00;;;;;;;29.03;14.30;;;9.10;91.80;;;;;;5072405;28;20184;-75
2023/04/17 03:36:26;;;;;;;31.73;16.17;;;9.10;91.70;;;;;;5068417;28;20219;-75
2023/04/17 03:38:51;;;;;;;34.93;15.40;;;9.10;91.50;;;;;;5076826;28;20177;-76
2023/04/17 03:41:17;;;;;;;30.37;14.77;;;9.20;91.50;;;;;;5059819;28;20552;-75
2023/04/17 03:43:42;;;;;;;33.40;16.10;;;9.20;91.40;;;;;;5035465;28;20302;-74
2023/04/17 03:46:08;;;;;;;32.97;15.83;;;9.20;91.50;;;;;;5047857;28;20201;-75
2023/04/17 03:48:33;;;;;;;35.70;16.70;;;9.30;91.50;;;;;;5034448;28;20180;-76
2023/04/17 03:50:59;;;;;;;32.80;15.90;;;9.30;91.40;;;;;;5052402;28;20269;-76
2023/04/17 03:53:24;;;;;;;36.20;17.40;;;9.20;91.10;;;;;;5051684;28;20557;-75
2023/04/17 03:55:50;;;;;;;31.80;16.93;;;9.20;91.10;;;;;;5049586;28;20258;-76
2023/04/17 03:58:16;;;;;;;39.23;17.50;;;9.10;91.10;;;;;;5052143;28;20259;-76
2023/04/17 04:00:41;;;;;;;35.10;17.13;;;9.10;91.10;;;;;;5049175;28;20188;-76
2023/04/17 04:03:07;;;;;;;33.43;16.33;;;9.10;91.10;;;;;;5051581;28;20185;-76
2023/04/17 04:05:32;;;;;;;38.77;18.40;;;9.10;91.20;;;;;;5049212;28;20219;-76
2023/04/17 04:07:58;;;;;;;32.40;17.10;;;9.10;91.20;;;;;;5049766;28;20268;-75
2023/04/17 04:10:23;;;;;;;30.30;15.97;;;9.10;91.20;;;;;;5053180;28;20560;-76
2023/04/17 04:12:49;;;;;;;33.57;16.83;;;9.10;91.10;;;;;;5034070;28;20181;-77
2023/04/17 04:15:15;;;;;;;28.47;15.30;;;9.10;91.20;;;;;;5051872;28;20185;-77
2023/04/17 04:17:40;;;;;;;30.10;16.50;;;9.10;91.10;;;;;;5054787;28;20739;-76
2023/04/17 04:20:09;;;;;;;30.67;14.27;;;9.10;91.10;;;;;;5065728;28;20207;-76
2023/04/17 04:22:35;;;;;;;34.83;15.80;;;9.10;91.20;;;;;;5055779;28;20192;-76
2023/04/17 04:25:00;;;;;;;36.27;15.37;;;9.10;91.10;;;;;;5050330;28;20480;-78
2023/04/17 04:27:26;;;;;;;35.27;16.63;;;9.10;90.90;;;;;;5063532;28;20663;-77
2023/04/17 04:29:57;;;;;;;33.30;16.07;;;9.00;91.00;;;;;;5049657;28;20181;-75
2023/04/17 04:32:24;;;;;;;31.40;15.60;;;9.00;91.10;;;;;;5051271;28;20439;-76
2023/04/17 04:34:50;;;;;;;34.80;17.43;;;9.00;91.10;;;;;;5051458;28;20419;-76
2023/04/17 04:37:20;;;;;;;32.57;16.37;;;9.00;91.20;;;;;;5048518;28;20489;-77
2023/04/17 04:39:52;;;;;;;32.60;15.67;;;9.00;91.30;;;;;;5033426;28;20422;-76
2023/04/17 04:42:20;;;;;;;35.67;15.83;;;8.90;91.30;;;;;;5050723;28;21108;-74
2023/04/17 04:44:46;;;;;;;33.27;14.90;;;8.90;91.40;;;;;;5046420;28;20466;-74
2023/04/17 04:47:12;;;;;;;31.63;16.03;;;8.90;91.50;;;;;;5044542;28;20454;-75
2023/04/17 04:49:37;;;;;;;32.30;14.90;;;8.90;91.50;;;;;;5051324;28;20185;-76
2023/04/17 04:52:03;;;;;;;38.93;17.57;;;8.90;91.50;;;;;;5050605;28;20184;-75
2023/04/17 04:54:29;;;;;;;35.13;16.07;;;8.90;91.50;;;;;;5049882;28;20192;-76
2023/04/17 04:56:55;;;;;;;35.50;14.83;;;8.80;91.50;;;;;;5046607;28;20805;-75
2023/04/17 04:59:21;;;;;;;33.83;16.30;;;8.90;91.60;;;;;;5051911;28;20597;-76
2023/04/17 05:01:47;;;;;;;32.23;14.93;;;8.80;91.50;;;;;;5051419;28;20947;-76
2023/04/17 05:04:12;;;;;;;32.37;16.27;;;8.90;91.50;;;;;;5051475;28;20285;-75
2023/04/17 05:06:38;;;;;;;35.63;17.03;;;8.90;91.50;;;;;;5048297;28;20577;-76
2023/04/17 05:09:03;;;;;;;31.97;15.53;;;9.00;91.50;;;;;;5051528;28;20272;-76
2023/04/17 05:11:29;;;;;;;33.80;15.77;;;8.90;91.30;;;;;;5033856;28;20643;-77
2023/04/17 05:13:55;;;;;;;30.93;16.03;;;9.00;91.30;;;;;;5032916;28;20180;-76
2023/04/17 05:16:20;;;;;;;35.57;16.80;;;8.90;91.20;;;;;;5050424;28;20220;-76
2023/04/17 05:18:46;;;;;;;33.10;15.83;;;9.00;91.30;;;;;;5053855;28;20722;-77
2023/04/17 05:21:12;;;;;;;34.03;14.77;;;9.00;91.30;;;;;;5051642;28;20604;-75
2023/04/17 05:23:37;;;;;;;36.10;15.90;;;9.00;91.40;;;;;;5052249;28;20427;-76
2023/04/17 05:26:04;;;;;;;37.63;17.10;;;9.10;91.10;;;;;;5052310;28;20211;-77
2023/04/17 05:28:30;;;;;;;30.50;15.90;;;9.10;90.90;;;;;;5054790;28;20233;-75
2023/04/17 05:30:56;;;;;;;35.37;16.07;;;9.10;91.00;;;;;;5052096;28;20421;-77
2023/04/17 05:33:22;;;;;;;31.40;15.13;;;9.10;91.00;;;;;;5034771;28;20514;-76
2023/04/17 05:35:47;;;;;;;28.33;15.00;;;9.20;90.90;;;;;;5048026;28;20459;-76
2023/04/17 05:38:13;;;;;;;33.20;15.30;;;9.30;90.80;;;;;;5052882;28;20686;-76
2023/04/17 05:40:38;;;;;;;35.07;15.97;;;9.20;90.60;;;;;;5051886;28;20187;-77
2023/04/17 05:43:08;;;;;;;31.90;15.40;;;9.20;90.50;;;;;;5050771;28;20207;-76
2023/04/17 05:45:34;;;;;;;28.20;15.00;;;9.10;90.50;;;;;;5048302;28;20212;-76
2023/04/17 05:47:59;;;;;;;34.70;16.33;;;9.00;90.70;;;;;;5051151;28;20415;-77
2023/04/17 05:50:25;;;;;;;32.57;15.97;;;9.10;90.90;;;;;;5033418;28;20568;-77
2023/04/17 05:52:51;;;;;;;33.40;16.80;;;9.20;91.00;;;;;;5051747;28;20184;-77
2023/04/17 05:55:18;;;;;;;32.17;16.37;;;9.20;91.00;;;;;;5052212;28;20652;-75
2023/04/17 05:57:44;;;;;;;31.73;15.30;;;9.20;90.80;;;;;;5050512;28;20242;-77
2023/04/17 06:00:11;;;;;;;29.80;15.77;;;9.10;90.70;;;;;;5052609;28;20418;-76
2023/04/17 06:02:41;;;;;;;37.33;16.67;;;9.00;90.90;;;;;;5052052;28;20238;-77
2023/04/17 06:05:07;;;;;;;35.80;17.43;;;9.00;91.10;;;;;;5052266;28;20877;-77
2023/04/17 06:07:33;;;;;;;37.97;17.80;;;9.00;91.30;;;;;;5051055;28;20550;-77
2023/04/17 06:09:59;;;;;;;28.53;14.43;;;9.00;91.40;;;;;;5056619;28;20176;-77
2023/04/17 06:12:25;;;;;;;29.30;15.20;;;9.00;91.50;;;;;;5042981;28;20419;-76
2023/04/17 06:14:50;;;;;;;43.80;17.10;;;8.90;91.40;;;;;;5059360;28;20458;-77
2023/04/17 06:17:16;;;;;;;32.67;16.80;;;8.90;91.60;;;;;;5054620;28;20212;-76
2023/04/17 06:19:41;;;;;;;38.20;16.67;;;8.90;91.80;;;;;;5068510;28;20196;-76
2023/04/17 06:22:07;;;;;;;28.73;14.90;;;8.90;92.00;;;;;;5055780;28;20262;-76
2023/04/17 06:24:32;;;;;;;31.90;15.93;;;9.00;92.10;;;;;;5057914;28;20219;-77
2023/04/17 06:26:58;;;;;;;34.20;15.60;;;9.00;92.10;;;;;;5064806;28;20236;-75
2023/04/17 06:29:24;;;;;;;29.77;15.20;;;9.00;92.00;;;;;;5054725;28;20181;-75
2023/04/17 06:31:50;;;;;;;29.83;15.40;;;9.00;92.10;;;;;;5054431;28;20188;-76
2023/04/17 06:34:15;;;;;;;28.53;14.20;;;9.00;92.10;;;;;;5037503;28;20226;-77
2023/04/17 06:36:41;;;;;;;30.30;15.23;;;9.00;92.10;;;;;;5031166;28;20904;-77
2023/04/17 06:39:06;;;;;;;32.97;16.90;;;9.00;92.10;;;;;;5050590;28;20211;-77
2023/04/17 06:41:32;;;;;;;31.70;16.17;;;9.00;92.00;;;;;;5050394;28;20184;-76
2023/04/17 06:43:57;;;;;;;31.23;16.77;;;9.10;92.00;;;;;;5050517;28;20255;-77
2023/04/17 06:46:23;;;;;;;32.07;15.80;;;9.10;92.00;;;;;;5031462;28;20349;-77
2023/04/17 06:48:51;;;;;;;32.93;16.20;;;9.10;91.70;;;;;;5051128;28;20185;-77
2023/04/17 06:51:19;;;;;;;32.93;16.00;;;9.10;91.80;;;;;;5051799;28;20177;-77
2023/04/17 06:53:45;;;;;;;29.13;15.93;;;9.00;91.90;;;;;;5051167;28;20430;-76
2023/04/17 06:56:11;;;;;;;37.70;16.30;;;9.00;92.10;;;;;;5063316;28;20462;-76
2023/04/17 06:58:42;;;;;;;32.80;14.80;;;9.00;92.10;;;;;;5072532;28;20426;-76
2023/04/17 07:01:12;;;;;;;32.07;16.07;;;9.10;92.10;;;;;;5067770;28;20256;-75
2023/04/17 07:03:38;;;;;;;27.60;14.10;;;9.20;92.10;;;;;;5050148;28;20423;-77
2023/04/17 07:06:04;;;;;;;32.17;14.80;;;9.20;92.00;;;;;;5061116;28;20957;-77
2023/04/17 07:08:29;;;;;;;30.53;14.77;;;9.30;91.80;;;;;;5067799;28;20419;-75
2023/04/17 07:10:55;;;;;;;27.63;14.33;;;9.30;91.50;;;;;;5051447;28;20193;-76
2023/04/17 07:13:20;;;;;;;29.43;15.80;;;9.20;91.50;;;;;;5068632;28;20207;-76
2023/04/17 07:15:53;;;;;;;35.47;16.27;;;9.30;91.60;;;;;;5068863;28;20220;-75
2023/04/17 07:18:20;;;;;;;33.47;14.87;;;9.30;91.60;;;;;;5061397;28;20191;-77
2023/04/17 07:20:49;;;;;;;29.77;15.03;;;9.20;91.50;;;;;;5067052;28;20417;-77
2023/04/17 07:23:14;;;;;;;28.80;14.07;;;9.30;91.50;;;;;;5061364;28;20434;-77
2023/04/17 07:25:40;;;;;;;25.47;13.37;;;9.30;91.50;;;;;;5052124;28;20557;-76
2023/04/17 07:28:06;;;;;;;31.83;14.67;;;9.30;91.50;;;;;;5052556;28;20219;-76
2023/04/17 07:30:32;;;;;;;34.00;14.60;;;9.30;91.40;;;;;;5063576;28;20203;-76
2023/04/17 07:32:58;;;;;;;30.90;14.53;;;9.30;91.50;;;;;;5060755;28;20837;-78
2023/04/17 07:35:23;;;;;;;30.43;13.40;;;9.40;91.50;;;;;;5073471;28;20219;-75
2023/04/17 07:37:49;;;;;;;27.17;14.00;;;9.40;91.60;;;;;;5059076;28;20192;-76
2023/04/17 07:40:15;;;;;;;30.67;13.90;;;9.50;91.50;;;;;;5067895;28;20651;-76
2023/04/17 07:42:41;;;;;;;27.60;13.93;;;9.60;91.50;;;;;;5060158;28;20212;-78
2023/04/17 07:45:07;;;;;;;24.50;13.60;;;9.60;91.50;;;;;;5053395;28;20463;-77
2023/04/17 07:47:33;;;;;;;23.13;13.67;;;9.60;91.50;;;;;;5054576;28;20209;-77
2023/04/17 07:49:59;;;;;;;29.87;14.60;;;9.60;91.40;;;;;;5041606;28;20446;-76
2023/04/17 07:52:24;;;;;;;23.33;12.53;;;9.70;91.40;;;;;;5058251;28;20187;-78
2023/04/17 07:54:50;;;;;;;24.93;13.23;;;9.70;91.20;;;;;;5051450;28;20569;-80
2023/04/17 07:57:16;;;;;;;23.77;12.37;;;9.80;91.20;;;;;;5047399;28;20200;-78
2023/04/17 07:59:42;;;;;;;23.80;12.57;;;9.80;90.80;;;;;;5032285;28;20189;-77
2023/04/17 08:02:08;;;;;;;29.70;12.70;;;9.80;90.70;;;;;;5052770;28;20426;-76
2023/04/17 08:04:34;;;;;;;29.50;14.30;;;9.70;90.60;;;;;;5052203;28;20466;-77
2023/04/17 08:07:00;;;;;;;25.93;13.20;;;9.70;90.60;;;;;;5044202;28;20526;-75
2023/04/17 08:09:25;;;;;;;21.13;11.33;;;9.70;90.70;;;;;;5052029;28;20172;-75
2023/04/17 08:11:51;;;;;;;26.90;12.70;;;9.70;90.80;;;;;;5051626;28;20180;-75
2023/04/17 08:14:19;;;;;;;27.13;12.57;;;9.70;90.90;;;;;;5051733;28;20192;-76
2023/04/17 08:16:46;;;;;;;18.03;9.73;;;9.70;90.70;;;;;;5046676;28;20254;-75
2023/04/17 08:19:12;;;;;;;23.33;12.90;;;9.70;90.90;;;;;;5047233;28;20419;-74
2023/04/17 08:21:37;;;;;;;25.63;11.03;;;9.70;91.10;;;;;;5051575;28;20787;-73
2023/04/17 08:24:03;;;;;;;23.07;12.10;;;9.70;91.10;;;;;;5033929;28;20463;-74
2023/04/17 08:26:29;;;;;;;24.53;11.50;;;9.80;91.20;;;;;;5049151;28;20258;-75
2023/04/17 08:28:54;;;;;;;20.43;11.70;;;9.90;91.20;;;;;;5052060;28;20176;-76
2023/04/17 08:31:20;;;;;;;19.37;11.17;;;9.90;91.00;;;;;;5051394;28;20181;-76
2023/04/17 08:33:46;;;;;;;22.43;12.50;;;9.90;91.00;;;;;;5052256;28;20183;-75
2023/04/17 08:36:12;;;;;;;20.20;11.07;;;9.90;90.70;;;;;;5050323;28;20208;-76
2023/04/17 08:38:37;;;;;;;22.67;11.10;;;9.80;90.70;;;;;;5052276;28;20207;-76
2023/04/17 08:41:07;;;;;;;23.27;10.27;;;9.80;90.80;;;;;;5050757;28;20180;-74
2023/04/17 08:43:35;;;;;;;21.83;11.73;;;9.80;90.90;;;;;;5047226;28;20230;-75
2023/04/17 08:46:01;;;;;;;24.83;12.07;;;9.90;90.90;;;;;;5049715;28;20550;-75
2023/04/17 08:48:27;;;;;;;20.17;10.80;;;9.90;90.50;;;;;;5053147;28;20419;-76
2023/04/17 08:50:53;;;;;;;23.13;11.60;;;9.90;90.40;;;;;;5053642;28;20515;-74
2023/04/17 08:53:19;;;;;;;22.13;11.50;;;10.00;90.30;;;;;;5054546;28;20195;-76
2023/04/17 08:55:47;;;;;;;20.93;10.63;;;10.10;90.30;;;;;;5050057;28;20212;-76
2023/04/17 08:58:13;;;;;;;17.83;10.37;;;10.10;90.20;;;;;;5060208;28;20423;-75
2023/04/17 09:00:41;;;;;;;22.20;10.80;;;10.30;90.20;;;;;;5059975;28;20502;-75
2023/04/17 09:03:13;;;;;;;19.33;10.23;;;10.30;89.90;;;;;;5060898;28;20483;-78
2023/04/17 09:05:44;;;;;;;19.47;11.07;;;10.40;89.50;;;;;;5053762;28;20470;-74
2023/04/17 09:08:22;;;;;;;18.83;9.50;;;10.50;89.30;;;;;;5057741;28;20431;-74
2023/04/17 09:10:52;;;;;;;21.37;10.77;;;10.50;89.00;;;;;;5051060;28;20462;-75
2023/04/17 09:13:20;;;;;;;20.43;9.33;;;10.60;88.60;;;;;;5051187;28;20419;-74
2023/04/17 09:16:02;;;;;;;15.87;9.73;;;10.50;88.10;;;;;;5038345;28;20502;-75
2023/04/17 09:18:32;;;;;;;17.20;9.77;;;10.60;88.60;;;;;;5048513;28;20521;-73
2023/04/17 09:20:59;;;;;;;20.73;10.77;;;10.70;88.10;;;;;;5051859;28;21095;-75
2023/04/17 09:23:26;;;;;;;18.03;9.27;;;10.60;88.00;;;;;;5051396;28;20430;-75
2023/04/17 09:26:08;;;;;;;18.30;9.73;;;10.70;88.10;;;;;;5047308;28;20561;-75
2023/04/17 09:28:40;;;;;;;16.53;9.03;;;10.60;88.00;;;;;;5050587;28;20427;-76
2023/04/17 09:31:25;;;;;;;15.30;8.30;;;10.40;88.40;;;;;;5050260;28;20482;-76
2023/04/17 09:33:58;;;;;;;17.73;9.87;;;10.30;89.20;;;;;;5049415;28;20465;-77
2023/04/17 09:36:26;;;;;;;16.13;8.50;;;10.30;89.60;;;;;;5045527;28;20455;-76
2023/04/17 09:38:52;;;;;;;17.57;9.67;;;10.40;89.50;;;;;;5045889;28;20935;-75
2023/04/17 09:41:26;;;;;;;18.70;9.83;;;10.50;89.60;;;;;;5051099;28;20415;-76
2023/04/17 09:43:54;;;;;;;14.30;8.30;;;10.80;89.20;;;;;;5049918;28;20561;-75
2023/04/17 09:46:41;;;;;;;16.87;8.17;;;10.90;87.80;;;;;;5047092;28;20486;-77
2023/04/17 09:49:41;;;;;;;19.80;8.80;;;11.10;87.40;;;;;;5050236;28;20407;-76
2023/04/17 09:52:07;;;;;;;12.20;6.77;;;11.40;86.60;;;;;;5050479;28;20469;-76
2023/04/17 09:54:36;;;;;;;13.93;6.73;;;11.30;83.60;;;;;;5050491;28;20434;-75
2023/04/17 09:57:07;;;;;;;14.60;8.20;;;11.10;83.80;;;;;;5053548;28;20468;-75
2023/04/17 09:59:33;;;;;;;16.00;7.73;;;11.10;84.90;;;;;;5053809;28;20782;-75
2023/04/17 10:02:01;;;;;;;13.13;7.83;;;11.10;85.00;;;;;;5061129;28;20431;-76
2023/04/17 10:04:28;;;;;;;16.93;7.67;;;10.80;85.50;;;;;;5066339;28;20508;-75
2023/04/17 10:06:56;;;;;;;13.17;8.10;;;10.80;86.50;;;;;;5039459;28;20454;-78
2023/04/17 10:09:22;;;;;;;14.30;8.10;;;10.80;86.60;;;;;;5033340;28;20438;-76
2023/04/17 10:11:48;;;;;;;16.50;8.37;;;10.80;86.20;;;;;;5050204;28;20788;-76
2023/04/17 10:14:31;;;;;;;12.90;7.50;;;10.90;86.20;;;;;;5049665;28;20189;-75
2023/04/17 10:16:57;;;;;;;16.03;7.97;;;11.00;85.60;;;;;;5037645;28;20462;-76
2023/04/17 10:19:34;;;;;;;13.10;8.23;;;11.10;84.70;;;;;;5031317;28;20427;-75
2023/04/17 10:22:16;;;;;;;16.03;9.27;;;11.20;85.00;;;;;;5045188;28;20199;-75
2023/04/17 10:24:43;;;;;;;15.07;7.33;;;11.40;84.40;;;;;;5049606;28;20466;-77
2023/04/17 10:27:27;;;;;;;15.77;7.70;;;11.40;83.60;;;;;;5046557;28;20552;-76
2023/04/17 10:29:54;;;;;;;11.23;7.10;;;11.40;83.70;;;;;;5050401;28;20536;-76
2023/04/17 10:32:22;;;;;;;14.10;7.70;;;11.40;82.80;;;;;;5046970;28;20475;-76
2023/04/17 10:34:48;;;;;;;13.67;7.57;;;11.40;82.50;;;;;;5050019;28;20426;-76
2023/04/17 10:37:14;;;;;;;12.87;7.07;;;11.40;82.20;;;;;;5045144;28;20454;-77
2023/04/17 10:39:52;;;;;;;12.07;7.87;;;11.50;82.50;;;;;;5049577;28;20231;-75
2023/04/17 10:42:22;;;;;;;10.07;5.93;;;11.40;82.10;;;;;;5031946;28;20426;-76
2023/04/17 10:44:49;;;;;;;10.50;6.77;;;11.40;81.90;;;;;;5052104;28;20987;-76
2023/04/17 10:47:19;;;;;;;19.90;10.33;;;11.50;82.50;;;;;;5047862;28;20462;-76
2023/04/17 10:49:54;;;;;;;11.27;6.70;;;11.70;82.70;;;;;;5053723;28;20474;-76
2023/04/17 10:52:32;;;;;;;11.93;6.77;;;11.90;83.00;;;;;;5052513;28;20789;-76
2023/04/17 10:55:07;;;;;;;10.10;5.93;;;12.10;81.50;;;;;;5050259;28;20543;-76
2023/04/17 10:57:57;;;;;;;12.20;6.17;;;12.20;79.00;;;;;;5055719;28;20493;-77
2023/04/17 11:00:35;;;;;;;10.03;5.80;;;12.50;78.90;;;;;;5058303;28;20502;-74
2023/04/17 11:03:02;;;;;;;8.53;5.80;;;12.60;77.40;;;;;;5057695;28;20848;-76
2023/04/17 11:05:30;;;;;;;7.53;4.50;;;12.60;77.00;;;;;;5037694;28;20502;-76
2023/04/17 11:07:56;;;;;;;9.13;5.10;;;12.70;76.50;;;;;;5058573;28;20426;-76
2023/04/17 11:10:22;;;;;;;8.27;5.03;;;12.90;76.70;;;;;;5039556;28;20427;-77
2023/04/17 11:12:52;;;;;;;10.40;5.77;;;12.90;75.90;;;;;;5050263;28;20524;-76
2023/04/17 11:15:24;;;;;;;8.27;5.40;;;13.00;76.10;;;;;;5056814;28;20196;-76
2023/04/17 11:17:50;;;;;;;8.27;5.90;;;13.10;76.20;;;;;;5056879;28;20438;-76
2023/04/17 11:20:20;;;;;;;9.73;5.93;;;13.20;75.10;;;;;;5055756;28;20806;-76
2023/04/17 11:22:46;;;;;;;10.13;5.97;;;13.20;74.90;;;;;;5053072;28;20188;-76
2023/04/17 11:25:25;;;;;;;7.70;4.63;;;13.40;75.50;;;;;;5053025;28;20463;-76
2023/04/17 11:27:55;;;;;;;7.90;5.17;;;13.70;74.20;;;;;;5052572;28;20422;-76
2023/04/17 11:30:35;;;;;;;7.80;5.17;;;13.60;72.40;;;;;;5053623;28;20431;-75
2023/04/17 11:33:05;;;;;;;6.77;5.10;;;13.90;72.40;;;;;;5035868;28;20488;-77
2023/04/17 11:35:39;;;;;;;7.20;5.20;;;14.20;72.00;;;;;;5053921;28;20440;-76
2023/04/17 11:38:10;;;;;;;8.63;5.93;;;14.60;70.80;;;;;;5052704;28;20917;-77
2023/04/17 11:40:41;;;;;;;6.63;5.00;;;14.90;70.20;;;;;;5037596;28;20459;-77
2023/04/17 11:43:07;;;;;;;9.43;5.50;;;15.20;70.20;;;;;;5055126;28;20460;-76
2023/04/17 11:45:34;;;;;;;7.70;5.20;;;15.40;68.50;;;;;;5055817;28;20965;-76
2023/04/17 11:48:01;;;;;;;9.60;4.93;;;15.10;69.20;;;;;;5058322;28;20464;-75
2023/04/17 11:50:31;;;;;;;7.97;5.20;;;15.40;69.90;;;;;;5065564;28;20975;-75
2023/04/17 11:52:59;;;;;;;11.17;6.03;;;15.60;67.30;;;;;;5049971;28;20523;-77
2023/04/17 11:55:29;;;;;;;10.40;5.60;;;15.00;69.40;;;;;;5070900;28;20921;-76
2023/04/17 11:57:56;;;;;;;9.03;5.20;;;14.50;71.10;;;;;;5040356;28;20423;-76
2023/04/17 12:00:26;;;;;;;8.70;5.70;;;14.20;72.10;;;;;;5036181;28;20442;-75
2023/04/17 12:02:52;;;;;;;8.47;5.50;;;13.90;71.80;;;;;;5055308;28;20399;-75
2023/04/17 12:05:18;;;;;;;7.70;5.33;;;13.60;72.90;;;;;;5054662;28;20821;-75
2023/04/17 12:07:44;;;;;;;16.20;6.00;;;13.30;73.60;;;;;;5051561;28;20438;-76
2023/04/17 12:10:10;;;;;;;10.73;6.30;;;13.00;74.00;;;;;;5054883;28;20507;-76
2023/04/17 12:12:36;;;;;;;9.20;5.33;;;12.80;74.30;;;;;;5036863;28;20502;-76
2023/04/17 12:15:02;;;;;;;11.47;5.37;;;12.70;74.00;;;;;;5054153;28;20478;-75
2023/04/17 12:17:28;;;;;;;8.30;5.00;;;12.60;73.90;;;;;;5051805;28;20770;-76
2023/04/17 12:19:54;;;;;;;6.00;4.40;;;12.40;73.90;;;;;;5054708;28;20446;-76
2023/04/17 12:22:20;;;;;;;9.10;5.10;;;12.40;74.00;;;;;;5050429;28;20423;-76
2023/04/17 12:24:46;;;;;;;9.33;6.03;;;12.30;74.20;;;;;;5042360;28;20462;-76
2023/04/17 12:27:11;;;;;;;9.10;5.30;;;12.30;74.50;;;;;;5051722;28;20207;-76
2023/04/17 12:29:37;;;;;;;7.73;5.20;;;12.40;74.30;;;;;;5052569;28;20678;-76
2023/04/17 12:32:02;;;;;;;7.87;5.37;;;12.40;74.20;;;;;;5035023;28;20172;-75
2023/04/17 12:34:28;;;;;;;9.43;5.93;;;12.30;74.50;;;;;;5052248;28;20250;-76
2023/04/17 12:36:54;;;;;;;8.00;4.97;;;12.30;74.50;;;;;;5049412;28;20215;-76
2023/04/17 12:39:19;;;;;;;10.73;6.20;;;12.20;74.80;;;;;;5052584;28;20696;-76